AFL660 UIII-VTSP
Flight info
| Callsign | AFL660 |
|---|---|
| Flight time | N/A |
| Altitude | 33100 |
| Route | ULTUK5Z ULTUK G909 LETBI B480 MORIT/K0854S1070 B330 NOLOM/K0856S1040 B330 IPDAT/K0854S1070 B330 UBKER/K0856S1100 G212 LUVEN/K0856S1070 G212 BOPTU/K0856S1100 G212 SGM A581 BIDRU/K0859S1070 A581 SAGAG/N0462F360 B218 LPB B346 PCB W39 NOBER B346 BKK G458 MENEX Y8 IKERA G458 SAPUD Y8 SAVSA SAVSA1C |
| Aircraft | A21N/M-SDE2E3FGHIRWXY/LB1 |
Departure
| Time | 2026-05-01 10:51 |
|---|---|
| Airport | Irkutsk International Airport (UIII) |
Arrival
| Time | N/A |
|---|---|
| Airport | Phuket International Airport (VTSP) |
| Time | Latitude | Longitude | Altitude | Speed | Heading |
|---|---|---|---|---|---|
| 2026-05-01 09:43 | 52.27098 | 104.36886 | 1654 ft | 0 kts | 199° |
| 2026-05-01 10:43 | 52.27097 | 104.36886 | 1654 ft | 2 kts | 199° |
| 2026-05-01 10:44 | 52.27073 | 104.36872 | 1667 ft | 4 kts | 199° |
| 2026-05-01 10:44 | 52.27048 | 104.36886 | 1667 ft | 6 kts | 127° |
| 2026-05-01 10:44 | 52.27024 | 104.36975 | 1668 ft | 11 kts | 110° |
| 2026-05-01 10:44 | 52.26997 | 104.37091 | 1665 ft | 11 kts | 110° |
| 2026-05-01 10:45 | 52.26992 | 104.37201 | 1662 ft | 9 kts | 68° |
| 2026-05-01 10:45 | 52.26982 | 104.37354 | 1668 ft | 23 kts | 113° |
| 2026-05-01 10:45 | 52.26917 | 104.37595 | 1662 ft | 23 kts | 113° |
| 2026-05-01 10:45 | 52.26856 | 104.37827 | 1654 ft | 22 kts | 113° |
| 2026-05-01 10:46 | 52.26797 | 104.38048 | 1663 ft | 23 kts | 113° |
| 2026-05-01 10:46 | 52.26719 | 104.38341 | 1660 ft | 30 kts | 113° |
| 2026-05-01 10:46 | 52.26640 | 104.38642 | 1657 ft | 28 kts | 113° |
| 2026-05-01 10:46 | 52.26563 | 104.38927 | 1658 ft | 27 kts | 114° |
| 2026-05-01 10:47 | 52.26491 | 104.39199 | 1665 ft | 25 kts | 113° |
| 2026-05-01 10:47 | 52.26423 | 104.39458 | 1660 ft | 24 kts | 113° |
| 2026-05-01 10:47 | 52.26357 | 104.39702 | 1658 ft | 23 kts | 113° |
| 2026-05-01 10:47 | 52.26291 | 104.39951 | 1666 ft | 28 kts | 113° |
| 2026-05-01 10:48 | 52.26214 | 104.40240 | 1660 ft | 27 kts | 114° |
| 2026-05-01 10:48 | 52.26142 | 104.40513 | 1658 ft | 26 kts | 114° |
| 2026-05-01 10:48 | 52.26072 | 104.40774 | 1658 ft | 25 kts | 113° |
| 2026-05-01 10:48 | 52.26017 | 104.40980 | 1667 ft | 14 kts | 114° |
| 2026-05-01 10:49 | 52.25994 | 104.41086 | 1654 ft | 8 kts | 94° |
| 2026-05-01 10:49 | 52.26010 | 104.41163 | 1664 ft | 7 kts | 43° |
| 2026-05-01 10:49 | 52.26066 | 104.41210 | 1662 ft | 10 kts | 25° |
| 2026-05-01 10:49 | 52.26125 | 104.41253 | 1659 ft | 9 kts | 24° |
| 2026-05-01 10:50 | 52.26180 | 104.41291 | 1662 ft | 8 kts | 15° |
| 2026-05-01 10:50 | 52.26231 | 104.41263 | 1664 ft | 11 kts | 308° |
| 2026-05-01 10:50 | 52.26315 | 104.40967 | 1658 ft | 54 kts | 293° |
| 2026-05-01 10:50 | 52.26542 | 104.40113 | 1666 ft | 111 kts | 294° |
| 2026-05-01 10:51 | 52.26927 | 104.38661 | 1667 ft | 164 kts | 294° |
| 2026-05-01 10:51 | 52.27402 | 104.36925 | 2108 ft | 166 kts | 294° |
| 2026-05-01 10:51 | 52.27708 | 104.35786 | 2548 ft | 164 kts | 295° |
| 2026-05-01 10:51 | 52.28152 | 104.34089 | 3227 ft | 161 kts | 295° |
| 2026-05-01 10:52 | 52.28798 | 104.31654 | 3623 ft | 191 kts | 295° |
| 2026-05-01 10:52 | 52.29142 | 104.30266 | 3780 ft | 207 kts | 290° |
| 2026-05-01 10:52 | 52.29433 | 104.27830 | 4051 ft | 231 kts | 275° |
| 2026-05-01 10:52 | 52.29149 | 104.25114 | 4388 ft | 258 kts | 245° |
| 2026-05-01 10:53 | 52.27925 | 104.22894 | 5068 ft | 271 kts | 219° |
| 2026-05-01 10:53 | 52.26341 | 104.21206 | 5923 ft | 273 kts | 214° |
| 2026-05-01 10:53 | 52.24697 | 104.19614 | 6720 ft | 276 kts | 213° |
| 2026-05-01 10:53 | 52.23041 | 104.18023 | 7455 ft | 278 kts | 213° |
| 2026-05-01 10:54 | 52.21370 | 104.16409 | 8185 ft | 281 kts | 214° |
| 2026-05-01 10:54 | 52.19686 | 104.14771 | 8908 ft | 284 kts | 214° |
| 2026-05-01 10:54 | 52.17988 | 104.13116 | 9684 ft | 285 kts | 214° |
| 2026-05-01 10:54 | 52.16277 | 104.11444 | 10382 ft | 290 kts | 215° |
| 2026-05-01 10:55 | 52.14491 | 104.09693 | 10689 ft | 310 kts | 215° |
| 2026-05-01 10:55 | 52.12584 | 104.07821 | 10925 ft | 330 kts | 215° |
| 2026-05-01 10:55 | 52.10563 | 104.05831 | 11184 ft | 349 kts | 215° |
| 2026-05-01 10:55 | 52.08431 | 104.03749 | 11452 ft | 366 kts | 214° |
| 2026-05-01 10:56 | 52.06214 | 104.01599 | 11933 ft | 375 kts | 214° |
| 2026-05-01 10:56 | 52.03952 | 103.99406 | 12542 ft | 382 kts | 214° |
| 2026-05-01 10:56 | 52.01655 | 103.97178 | 13160 ft | 388 kts | 214° |
| 2026-05-01 10:56 | 51.99324 | 103.94917 | 13786 ft | 393 kts | 215° |
| 2026-05-01 10:57 | 51.96963 | 103.92628 | 14356 ft | 398 kts | 215° |
| 2026-05-01 10:57 | 51.94569 | 103.90311 | 14941 ft | 403 kts | 215° |
| 2026-05-01 10:57 | 51.92148 | 103.87970 | 15442 ft | 409 kts | 215° |
| 2026-05-01 10:57 | 51.89690 | 103.85596 | 15989 ft | 413 kts | 215° |
| 2026-05-01 10:58 | 51.87244 | 103.83237 | 16543 ft | 417 kts | 215° |
| 2026-05-01 10:58 | 51.84739 | 103.80824 | 17082 ft | 421 kts | 215° |
| 2026-05-01 10:58 | 51.82208 | 103.78391 | 17611 ft | 425 kts | 215° |
| 2026-05-01 10:58 | 51.79617 | 103.75902 | 18130 ft | 429 kts | 215° |
| 2026-05-01 10:59 | 51.77070 | 103.73458 | 18594 ft | 433 kts | 215° |
| 2026-05-01 10:59 | 51.74454 | 103.70999 | 19024 ft | 438 kts | 212° |
| 2026-05-01 10:59 | 51.71639 | 103.69010 | 19420 ft | 447 kts | 201° |
| 2026-05-01 10:59 | 51.68582 | 103.67896 | 19835 ft | 455 kts | 192° |
| 2026-05-01 11:00 | 51.65425 | 103.67262 | 20266 ft | 459 kts | 187° |
| 2026-05-01 11:00 | 51.62220 | 103.66867 | 20687 ft | 463 kts | 186° |
| 2026-05-01 11:00 | 51.58984 | 103.66568 | 21084 ft | 468 kts | 185° |
| 2026-05-01 11:00 | 51.55720 | 103.66290 | 21517 ft | 471 kts | 185° |
| 2026-05-01 11:01 | 51.52441 | 103.65992 | 21974 ft | 474 kts | 186° |
| 2026-05-01 11:01 | 51.49140 | 103.65656 | 22383 ft | 477 kts | 186° |
| 2026-05-01 11:01 | 51.45819 | 103.65286 | 22772 ft | 479 kts | 186° |
| 2026-05-01 11:01 | 51.42488 | 103.64900 | 23207 ft | 481 kts | 186° |
| 2026-05-01 11:02 | 51.39136 | 103.64512 | 23583 ft | 485 kts | 186° |
| 2026-05-01 11:02 | 51.35759 | 103.64126 | 23916 ft | 488 kts | 186° |
| 2026-05-01 11:02 | 51.32362 | 103.63732 | 24227 ft | 490 kts | 186° |
| 2026-05-01 11:02 | 51.28947 | 103.63344 | 24493 ft | 494 kts | 186° |
| 2026-05-01 11:03 | 51.25508 | 103.62957 | 24756 ft | 496 kts | 186° |
| 2026-05-01 11:03 | 51.22056 | 103.62555 | 25032 ft | 499 kts | 186° |
| 2026-05-01 11:03 | 51.18582 | 103.62147 | 25312 ft | 501 kts | 186° |
| 2026-05-01 11:03 | 51.15095 | 103.61739 | 25604 ft | 504 kts | 186° |
| 2026-05-01 11:04 | 51.11588 | 103.61325 | 25857 ft | 507 kts | 186° |
| 2026-05-01 11:04 | 51.08068 | 103.60917 | 26142 ft | 509 kts | 186° |
| 2026-05-01 11:04 | 51.04526 | 103.60499 | 26426 ft | 511 kts | 186° |
| 2026-05-01 11:04 | 51.00966 | 103.60099 | 26660 ft | 514 kts | 185° |
| 2026-05-01 11:05 | 50.97445 | 103.59714 | 26971 ft | 513 kts | 185° |
| 2026-05-01 11:05 | 50.93892 | 103.59317 | 27426 ft | 511 kts | 185° |
| 2026-05-01 11:05 | 50.90352 | 103.58917 | 27827 ft | 509 kts | 185° |
| 2026-05-01 11:05 | 50.86774 | 103.58509 | 28196 ft | 509 kts | 185° |
| 2026-05-01 11:06 | 50.83280 | 103.58111 | 28462 ft | 511 kts | 186° |
| 2026-05-01 11:06 | 50.79734 | 103.57705 | 28726 ft | 512 kts | 185° |
| 2026-05-01 11:06 | 50.76179 | 103.57301 | 29037 ft | 512 kts | 185° |
| 2026-05-01 11:07 | 50.69072 | 103.56497 | 29651 ft | 512 kts | 185° |
| 2026-05-01 11:07 | 50.65519 | 103.56097 | 29913 ft | 512 kts | 185° |
| 2026-05-01 11:07 | 50.61955 | 103.55696 | 30192 ft | 512 kts | 185° |
| 2026-05-01 11:07 | 50.58404 | 103.55298 | 30435 ft | 512 kts | 185° |
| 2026-05-01 11:08 | 50.54850 | 103.54906 | 30640 ft | 511 kts | 185° |
| 2026-05-01 11:08 | 50.51312 | 103.54519 | 31008 ft | 508 kts | 185° |
| 2026-05-01 11:08 | 50.44289 | 103.53744 | 31473 ft | 506 kts | 185° |
| 2026-05-01 11:09 | 50.40774 | 103.53345 | 31662 ft | 506 kts | 185° |
| 2026-05-01 11:09 | 50.37266 | 103.52949 | 31900 ft | 505 kts | 185° |
| 2026-05-01 11:09 | 50.33763 | 103.52552 | 32118 ft | 505 kts | 185° |
| 2026-05-01 11:10 | 50.26761 | 103.51768 | 32518 ft | 504 kts | 185° |
| 2026-05-01 11:10 | 50.23263 | 103.51381 | 32730 ft | 503 kts | 185° |
| 2026-05-01 11:10 | 50.19776 | 103.50998 | 32923 ft | 503 kts | 185° |
| 2026-05-01 11:10 | 50.16282 | 103.50633 | 33103 ft | 502 kts | 184° |
| 2026-05-01 11:11 | 50.12835 | 103.50289 | 33232 ft | 504 kts | 184° |
| 2026-05-01 11:11 | 50.09333 | 103.49948 | 33235 ft | 504 kts | 184° |
| 2026-05-01 11:11 | 50.02350 | 103.49269 | 33238 ft | 502 kts | 184° |
| 2026-05-01 11:12 | 49.95373 | 103.48593 | 33251 ft | 503 kts | 184° |
| 2026-05-01 11:12 | 49.88394 | 103.47909 | 33238 ft | 502 kts | 184° |
| 2026-05-01 11:13 | 49.81431 | 103.47224 | 33236 ft | 500 kts | 184° |
| 2026-05-01 11:13 | 49.74493 | 103.46546 | 33238 ft | 499 kts | 184° |
| 2026-05-01 11:14 | 49.67566 | 103.45879 | 33232 ft | 499 kts | 184° |
| 2026-05-01 11:14 | 49.60639 | 103.45212 | 33229 ft | 498 kts | 183° |
| 2026-05-01 11:15 | 49.53737 | 103.44548 | 33232 ft | 496 kts | 184° |
| 2026-05-01 11:15 | 49.46844 | 103.43884 | 33228 ft | 496 kts | 184° |
| 2026-05-01 11:16 | 49.39959 | 103.43224 | 33212 ft | 496 kts | 183° |
| 2026-05-01 11:16 | 49.33090 | 103.42568 | 33229 ft | 493 kts | 183° |
| 2026-05-01 11:17 | 49.26244 | 103.41915 | 33235 ft | 493 kts | 183° |
| 2026-05-01 11:17 | 49.19411 | 103.41280 | 33235 ft | 491 kts | 184° |
| 2026-05-01 11:18 | 49.12581 | 103.40630 | 33228 ft | 491 kts | 184° |
| 2026-05-01 11:18 | 49.05772 | 103.39980 | 33237 ft | 490 kts | 184° |
| 2026-05-01 11:19 | 48.98965 | 103.39338 | 33238 ft | 490 kts | 184° |
| 2026-05-01 11:19 | 48.92200 | 103.38704 | 33238 ft | 490 kts | 183° |
| 2026-05-01 11:20 | 48.85404 | 103.38069 | 33237 ft | 489 kts | 183° |
| 2026-05-01 11:20 | 48.78605 | 103.37432 | 33237 ft | 489 kts | 183° |
| 2026-05-01 11:21 | 48.71807 | 103.36796 | 33237 ft | 489 kts | 183° |
| 2026-05-01 11:21 | 48.65033 | 103.36163 | 33234 ft | 487 kts | 183° |
| 2026-05-01 11:22 | 48.58265 | 103.35535 | 33233 ft | 487 kts | 183° |
| 2026-05-01 11:22 | 48.51493 | 103.34909 | 33233 ft | 487 kts | 183° |
| 2026-05-01 11:23 | 48.44725 | 103.34283 | 33233 ft | 487 kts | 183° |
| 2026-05-01 11:23 | 48.37953 | 103.33660 | 33235 ft | 487 kts | 183° |
| 2026-05-01 11:24 | 48.31182 | 103.33041 | 33231 ft | 487 kts | 183° |
| 2026-05-01 11:25 | 48.21066 | 103.32119 | 33234 ft | 484 kts | 183° |
| 2026-05-01 11:25 | 48.11019 | 103.31209 | 33234 ft | 485 kts | 183° |
| 2026-05-01 11:26 | 48.00929 | 103.30319 | 33224 ft | 482 kts | 184° |
| 2026-05-01 11:27 | 47.94233 | 103.29707 | 33226 ft | 482 kts | 184° |
| 2026-05-01 11:27 | 47.87542 | 103.29097 | 33212 ft | 482 kts | 184° |
| 2026-05-01 11:28 | 47.80869 | 103.28492 | 33223 ft | 479 kts | 184° |
| 2026-05-01 11:28 | 47.74217 | 103.27893 | 33222 ft | 479 kts | 184° |
| 2026-05-01 11:29 | 47.64242 | 103.26999 | 33216 ft | 478 kts | 184° |
| 2026-05-01 11:30 | 47.54344 | 103.26114 | 33218 ft | 476 kts | 184° |
| 2026-05-01 11:30 | 47.47729 | 103.25525 | 33219 ft | 477 kts | 184° |
| 2026-05-01 11:31 | 47.41112 | 103.24937 | 33218 ft | 475 kts | 184° |
| 2026-05-01 11:31 | 47.34521 | 103.24353 | 33219 ft | 474 kts | 184° |
| 2026-05-01 11:32 | 47.27930 | 103.23772 | 33223 ft | 474 kts | 184° |
| 2026-05-01 11:32 | 47.21349 | 103.23194 | 33218 ft | 472 kts | 184° |
| 2026-05-01 11:33 | 47.14802 | 103.22622 | 33222 ft | 470 kts | 184° |
| 2026-05-01 11:33 | 47.08273 | 103.22052 | 33225 ft | 470 kts | 184° |
| 2026-05-01 11:34 | 47.01739 | 103.21482 | 33228 ft | 470 kts | 184° |
| 2026-05-01 11:34 | 46.95237 | 103.20923 | 33234 ft | 467 kts | 184° |
| 2026-05-01 11:35 | 46.88765 | 103.20370 | 33227 ft | 464 kts | 185° |
| 2026-05-01 11:35 | 46.82363 | 103.19809 | 33226 ft | 464 kts | 185° |
| 2026-05-01 11:36 | 46.75928 | 103.19251 | 33228 ft | 463 kts | 184° |
| 2026-05-01 11:36 | 46.69506 | 103.18698 | 33231 ft | 462 kts | 184° |
| 2026-05-01 11:37 | 46.63091 | 103.18146 | 33231 ft | 461 kts | 184° |
| 2026-05-01 11:37 | 46.56670 | 103.17598 | 33228 ft | 462 kts | 184° |
| 2026-05-01 11:38 | 46.50231 | 103.17046 | 33225 ft | 464 kts | 184° |
| 2026-05-01 11:38 | 46.43799 | 103.16493 | 33222 ft | 463 kts | 184° |
| 2026-05-01 11:39 | 46.37371 | 103.15947 | 33216 ft | 463 kts | 184° |
| 2026-05-01 11:39 | 46.30927 | 103.15401 | 33217 ft | 464 kts | 184° |
| 2026-05-01 11:40 | 46.25580 | 103.14949 | 33220 ft | 462 kts | 184° |
| 2026-05-01 11:40 | 46.19163 | 103.14406 | 33217 ft | 462 kts | 184° |
| 2026-05-01 11:41 | 46.12741 | 103.13864 | 33211 ft | 463 kts | 184° |
| 2026-05-01 11:41 | 46.06312 | 103.13318 | 33206 ft | 462 kts | 184° |
| 2026-05-01 11:42 | 45.99896 | 103.12778 | 33207 ft | 462 kts | 184° |
| 2026-05-01 11:42 | 45.93463 | 103.12239 | 33200 ft | 464 kts | 184° |
| 2026-05-01 11:43 | 45.87014 | 103.11702 | 33202 ft | 464 kts | 184° |
| 2026-05-01 11:43 | 45.80596 | 103.11168 | 33198 ft | 460 kts | 185° |
| 2026-05-01 11:44 | 45.71048 | 103.10363 | 33188 ft | 457 kts | 184° |
| 2026-05-01 11:44 | 45.64704 | 103.09825 | 33184 ft | 456 kts | 184° |
| 2026-05-01 11:45 | 45.58357 | 103.09300 | 33181 ft | 456 kts | 185° |
| 2026-05-01 11:45 | 45.52039 | 103.08779 | 33184 ft | 454 kts | 184° |
| 2026-05-01 11:46 | 45.45736 | 103.08259 | 33183 ft | 453 kts | 184° |
| 2026-05-01 11:46 | 45.39480 | 103.07744 | 33183 ft | 453 kts | 184° |
| 2026-05-01 11:47 | 45.33197 | 103.07229 | 33183 ft | 452 kts | 184° |
| 2026-05-01 11:47 | 45.26923 | 103.06719 | 33183 ft | 451 kts | 184° |
| 2026-05-01 11:48 | 45.20650 | 103.06209 | 33189 ft | 451 kts | 184° |
| 2026-05-01 11:48 | 45.14391 | 103.05699 | 33186 ft | 450 kts | 184° |
| 2026-05-01 11:49 | 45.08136 | 103.05190 | 33186 ft | 450 kts | 184° |
| 2026-05-01 11:49 | 45.01883 | 103.04682 | 33190 ft | 450 kts | 185° |
| 2026-05-01 11:50 | 44.95642 | 103.04175 | 33186 ft | 448 kts | 185° |
| 2026-05-01 11:50 | 44.89458 | 103.03672 | 33194 ft | 448 kts | 185° |
| 2026-05-01 11:51 | 44.83238 | 103.03173 | 33193 ft | 448 kts | 185° |
| 2026-05-01 11:51 | 44.77014 | 103.02677 | 33189 ft | 443 kts | 185° |
| 2026-05-01 11:52 | 44.70913 | 103.02184 | 33195 ft | 442 kts | 185° |
| 2026-05-01 11:52 | 44.64773 | 103.01691 | 33193 ft | 442 kts | 185° |
| 2026-05-01 11:53 | 44.58637 | 103.01203 | 33191 ft | 441 kts | 186° |
| 2026-05-01 11:53 | 44.52513 | 103.00716 | 33199 ft | 441 kts | 186° |
| 2026-05-01 11:54 | 44.46383 | 103.00228 | 33200 ft | 441 kts | 186° |
| 2026-05-01 11:54 | 44.40254 | 102.99741 | 33194 ft | 441 kts | 186° |
| 2026-05-01 11:55 | 44.34125 | 102.99255 | 33190 ft | 441 kts | 186° |
| 2026-05-01 11:55 | 44.27995 | 102.98770 | 33192 ft | 441 kts | 186° |
| 2026-05-01 11:56 | 44.21865 | 102.98287 | 33196 ft | 441 kts | 186° |
| 2026-05-01 11:56 | 44.15741 | 102.97805 | 33200 ft | 440 kts | 186° |
| 2026-05-01 11:57 | 44.09616 | 102.97323 | 33202 ft | 440 kts | 186° |
| 2026-05-01 11:57 | 44.03539 | 102.96846 | 33199 ft | 439 kts | 186° |
| 2026-05-01 11:58 | 43.97456 | 102.96371 | 33200 ft | 437 kts | 186° |
| 2026-05-01 11:59 | 43.88352 | 102.95660 | 33199 ft | 437 kts | 186° |
| 2026-05-01 11:59 | 43.82288 | 102.95188 | 33198 ft | 436 kts | 186° |
| 2026-05-01 12:00 | 43.73206 | 102.94486 | 33200 ft | 435 kts | 186° |
| 2026-05-01 12:01 | 43.64140 | 102.93783 | 33186 ft | 434 kts | 186° |
| 2026-05-01 12:01 | 43.58105 | 102.93316 | 33183 ft | 434 kts | 186° |
| 2026-05-01 12:02 | 43.52081 | 102.92850 | 33176 ft | 434 kts | 186° |
| 2026-05-01 12:02 | 43.46090 | 102.92389 | 33160 ft | 434 kts | 187° |
| 2026-05-01 12:03 | 43.40063 | 102.91926 | 33160 ft | 434 kts | 187° |
| 2026-05-01 12:03 | 43.34035 | 102.91465 | 33162 ft | 434 kts | 187° |
| 2026-05-01 12:04 | 43.28006 | 102.91004 | 33157 ft | 434 kts | 187° |
| 2026-05-01 12:04 | 43.21976 | 102.90544 | 33151 ft | 434 kts | 187° |
| 2026-05-01 12:05 | 43.15955 | 102.90085 | 33144 ft | 434 kts | 187° |
| 2026-05-01 12:05 | 43.09917 | 102.89626 | 33410 ft | 434 kts | 187° |
| 2026-05-01 12:05 | 43.06909 | 102.89398 | 33664 ft | 432 kts | 187° |
| 2026-05-01 12:06 | 43.03911 | 102.89172 | 33838 ft | 432 kts | 187° |
| 2026-05-01 12:06 | 43.00906 | 102.88943 | 33926 ft | 433 kts | 187° |
| 2026-05-01 12:06 | 42.97894 | 102.88714 | 34039 ft | 434 kts | 187° |
| 2026-05-01 12:06 | 42.94876 | 102.88486 | 34156 ft | 434 kts | 187° |
| 2026-05-01 12:07 | 42.91860 | 102.88258 | 34272 ft | 434 kts | 187° |
| 2026-05-01 12:07 | 42.88846 | 102.88031 | 34424 ft | 432 kts | 187° |
| 2026-05-01 12:07 | 42.85896 | 102.87813 | 34699 ft | 428 kts | 187° |
| 2026-05-01 12:07 | 42.82921 | 102.87590 | 34807 ft | 428 kts | 187° |
| 2026-05-01 12:08 | 42.76949 | 102.87137 | 34863 ft | 431 kts | 187° |
| 2026-05-01 12:08 | 42.70944 | 102.86683 | 35024 ft | 433 kts | 187° |
| 2026-05-01 12:09 | 42.64942 | 102.86236 | 35097 ft | 430 kts | 188° |
| 2026-05-01 12:09 | 42.58976 | 102.85792 | 35094 ft | 428 kts | 188° |
| 2026-05-01 12:10 | 42.50052 | 102.85124 | 35090 ft | 428 kts | 188° |
| 2026-05-01 12:11 | 42.41124 | 102.84459 | 35088 ft | 428 kts | 188° |
| 2026-05-01 12:11 | 42.35173 | 102.84017 | 35088 ft | 428 kts | 188° |
| 2026-05-01 12:12 | 42.29218 | 102.83577 | 35069 ft | 428 kts | 188° |
| 2026-05-01 12:12 | 42.23340 | 102.83145 | 35083 ft | 425 kts | 188° |
| 2026-05-01 12:13 | 42.17443 | 102.82710 | 35084 ft | 424 kts | 188° |
| 2026-05-01 12:13 | 42.11545 | 102.82274 | 35080 ft | 424 kts | 188° |
| 2026-05-01 12:14 | 42.05652 | 102.81923 | 35079 ft | 425 kts | 184° |
| 2026-05-01 12:14 | 41.99739 | 102.83127 | 35079 ft | 435 kts | 172° |
| 2026-05-01 12:15 | 41.93884 | 102.85331 | 35081 ft | 438 kts | 170° |
| 2026-05-01 12:15 | 41.88042 | 102.87727 | 35060 ft | 438 kts | 170° |
| 2026-05-01 12:16 | 41.82215 | 102.90109 | 35079 ft | 437 kts | 170° |
| 2026-05-01 12:16 | 41.76441 | 102.92426 | 35082 ft | 436 kts | 170° |
| 2026-05-01 12:17 | 41.70624 | 102.94737 | 35082 ft | 436 kts | 171° |
| 2026-05-01 12:17 | 41.64805 | 102.97045 | 35076 ft | 435 kts | 171° |
| 2026-05-01 12:18 | 41.58975 | 102.98794 | 35079 ft | 422 kts | 182° |
| 2026-05-01 12:18 | 41.53140 | 102.99064 | 35079 ft | 418 kts | 186° |
| 2026-05-01 12:19 | 41.47325 | 102.99014 | 35082 ft | 418 kts | 187° |
| 2026-05-01 12:19 | 41.41519 | 102.98916 | 35084 ft | 416 kts | 187° |
| 2026-05-01 12:20 | 41.35730 | 102.98842 | 35085 ft | 416 kts | 187° |
| 2026-05-01 12:20 | 41.29935 | 102.98837 | 35085 ft | 416 kts | 187° |
| 2026-05-01 12:21 | 41.24140 | 102.98867 | 35063 ft | 416 kts | 187° |
| 2026-05-01 12:21 | 41.18351 | 102.98899 | 35081 ft | 416 kts | 187° |
| 2026-05-01 12:22 | 41.13544 | 102.98919 | 35089 ft | 415 kts | 187° |
| 2026-05-01 12:22 | 41.06824 | 102.98944 | 35104 ft | 415 kts | 187° |
| 2026-05-01 12:23 | 41.01047 | 102.98966 | 35096 ft | 414 kts | 187° |
| 2026-05-01 12:23 | 40.95296 | 102.98989 | 35098 ft | 413 kts | 187° |
| 2026-05-01 12:24 | 40.89549 | 102.99010 | 35099 ft | 412 kts | 187° |
| 2026-05-01 12:24 | 40.83810 | 102.99030 | 35101 ft | 412 kts | 187° |
| 2026-05-01 12:25 | 40.75229 | 102.99064 | 35104 ft | 410 kts | 188° |
| 2026-05-01 12:26 | 40.69524 | 102.99085 | 35104 ft | 410 kts | 188° |
| 2026-05-01 12:26 | 40.61931 | 102.99111 | 35105 ft | 410 kts | 188° |
| 2026-05-01 12:27 | 40.52492 | 102.99149 | 35107 ft | 407 kts | 188° |
| 2026-05-01 12:28 | 40.43992 | 102.99179 | 35109 ft | 407 kts | 188° |
| 2026-05-01 12:29 | 40.36456 | 102.99206 | 35110 ft | 407 kts | 188° |
| 2026-05-01 12:29 | 40.27958 | 102.99237 | 35109 ft | 407 kts | 188° |
| 2026-05-01 12:30 | 40.19462 | 102.99269 | 35115 ft | 407 kts | 188° |
| 2026-05-01 12:31 | 40.13813 | 102.99292 | 35117 ft | 404 kts | 188° |
| 2026-05-01 12:31 | 40.08194 | 102.99313 | 35123 ft | 403 kts | 189° |
| 2026-05-01 12:32 | 40.02588 | 102.99331 | 35119 ft | 403 kts | 188° |
| 2026-05-01 12:32 | 39.94176 | 102.99361 | 35117 ft | 402 kts | 189° |
| 2026-05-01 12:33 | 39.88597 | 102.99384 | 35126 ft | 400 kts | 189° |
| 2026-05-01 12:33 | 39.83063 | 102.99403 | 35129 ft | 400 kts | 189° |
| 2026-05-01 12:34 | 39.77496 | 102.99422 | 35128 ft | 400 kts | 189° |
| 2026-05-01 12:34 | 39.71932 | 102.99442 | 35121 ft | 399 kts | 189° |
| 2026-05-01 12:35 | 39.66392 | 102.99463 | 35129 ft | 398 kts | 189° |
| 2026-05-01 12:35 | 39.60857 | 102.99482 | 35128 ft | 397 kts | 189° |
| 2026-05-01 12:36 | 39.55328 | 102.99497 | 35130 ft | 397 kts | 189° |
| 2026-05-01 12:36 | 39.49801 | 102.99517 | 35119 ft | 397 kts | 189° |
| 2026-05-01 12:37 | 39.44261 | 102.99536 | 35126 ft | 399 kts | 189° |
| 2026-05-01 12:37 | 39.38710 | 102.99627 | 35128 ft | 403 kts | 185° |
| 2026-05-01 12:38 | 39.33102 | 103.01176 | 35130 ft | 424 kts | 171° |
| 2026-05-01 12:38 | 39.27606 | 103.04104 | 35116 ft | 430 kts | 167° |
| 2026-05-01 12:39 | 39.22152 | 103.07315 | 35123 ft | 431 kts | 166° |
| 2026-05-01 12:39 | 39.16733 | 103.10512 | 35125 ft | 431 kts | 166° |
| 2026-05-01 12:40 | 39.11269 | 103.13684 | 35098 ft | 430 kts | 166° |
| 2026-05-01 12:40 | 39.05810 | 103.16823 | 35123 ft | 429 kts | 166° |
| 2026-05-01 12:41 | 39.00360 | 103.19943 | 35130 ft | 428 kts | 166° |
| 2026-05-01 12:41 | 38.94918 | 103.23055 | 35118 ft | 428 kts | 166° |
| 2026-05-01 12:42 | 38.89466 | 103.26169 | 35123 ft | 428 kts | 166° |
| 2026-05-01 12:42 | 38.84018 | 103.29277 | 35123 ft | 428 kts | 166° |
| 2026-05-01 12:43 | 38.78579 | 103.32375 | 35125 ft | 428 kts | 166° |
| 2026-05-01 12:43 | 38.73132 | 103.35472 | 35126 ft | 428 kts | 166° |
| 2026-05-01 12:44 | 38.67685 | 103.38561 | 35132 ft | 428 kts | 166° |
| 2026-05-01 12:45 | 38.56792 | 103.44724 | 35110 ft | 428 kts | 166° |
| 2026-05-01 12:45 | 38.51374 | 103.47782 | 35145 ft | 429 kts | 166° |
| 2026-05-01 12:46 | 38.45904 | 103.50866 | 35131 ft | 430 kts | 165° |
| 2026-05-01 12:46 | 38.40409 | 103.53958 | 35144 ft | 433 kts | 165° |
| 2026-05-01 12:47 | 38.34887 | 103.57065 | 35144 ft | 434 kts | 165° |
| 2026-05-01 12:47 | 38.29363 | 103.60168 | 35152 ft | 434 kts | 165° |
| 2026-05-01 12:48 | 38.23823 | 103.63272 | 35154 ft | 435 kts | 165° |
| 2026-05-01 12:48 | 38.18278 | 103.66374 | 35153 ft | 435 kts | 165° |
| 2026-05-01 12:49 | 38.12763 | 103.69453 | 35160 ft | 435 kts | 165° |
| 2026-05-01 12:49 | 38.07217 | 103.72544 | 35166 ft | 435 kts | 165° |
| 2026-05-01 12:50 | 38.01668 | 103.75632 | 35166 ft | 435 kts | 165° |
| 2026-05-01 12:50 | 37.96121 | 103.78713 | 35160 ft | 435 kts | 165° |
| 2026-05-01 12:51 | 37.90582 | 103.81784 | 35167 ft | 435 kts | 165° |
| 2026-05-01 12:52 | 37.82263 | 103.86387 | 35146 ft | 435 kts | 165° |
| 2026-05-01 12:52 | 37.73933 | 103.90983 | 35171 ft | 436 kts | 165° |
| 2026-05-01 12:53 | 37.65605 | 103.95572 | 35178 ft | 435 kts | 165° |
| 2026-05-01 12:54 | 37.60051 | 103.98625 | 35186 ft | 435 kts | 165° |
| 2026-05-01 12:54 | 37.51734 | 104.03188 | 35193 ft | 434 kts | 164° |
| 2026-05-01 12:55 | 37.43421 | 104.07738 | 35190 ft | 434 kts | 164° |
| 2026-05-01 12:56 | 37.37881 | 104.10764 | 35191 ft | 434 kts | 164° |
| 2026-05-01 12:56 | 37.32341 | 104.13785 | 35179 ft | 434 kts | 164° |
| 2026-05-01 12:57 | 37.26792 | 104.16733 | 35190 ft | 430 kts | 169° |
| 2026-05-01 12:57 | 37.18234 | 104.19164 | 35195 ft | 420 kts | 177° |
| 2026-05-01 12:58 | 37.12477 | 104.20398 | 35197 ft | 420 kts | 178° |
| 2026-05-01 12:59 | 37.03831 | 104.22219 | 35185 ft | 421 kts | 178° |
| 2026-05-01 12:59 | 36.95128 | 104.24087 | 35187 ft | 423 kts | 177° |
| 2026-05-01 13:00 | 36.86423 | 104.25970 | 35192 ft | 423 kts | 177° |
| 2026-05-01 13:01 | 36.77707 | 104.27847 | 35182 ft | 424 kts | 177° |
| 2026-05-01 13:02 | 36.69013 | 104.29716 | 35180 ft | 424 kts | 177° |
| 2026-05-01 13:07 | 36.04868 | 104.34887 | 35193 ft | 421 kts | 186° |
| 2026-05-01 13:08 | 35.99016 | 104.34987 | 35191 ft | 421 kts | 186° |
| 2026-05-01 13:08 | 35.93160 | 104.35087 | 35200 ft | 421 kts | 186° |
| 2026-05-01 13:09 | 35.87305 | 104.35184 | 35177 ft | 421 kts | 186° |
| 2026-05-01 13:09 | 35.81442 | 104.35279 | 35191 ft | 422 kts | 186° |
| 2026-05-01 13:10 | 35.75571 | 104.35371 | 35186 ft | 422 kts | 186° |
| 2026-05-01 13:10 | 35.69704 | 104.35466 | 35190 ft | 422 kts | 186° |
| 2026-05-01 13:11 | 35.63836 | 104.35560 | 35189 ft | 422 kts | 186° |
| 2026-05-01 13:11 | 35.57957 | 104.35652 | 35184 ft | 422 kts | 186° |
| 2026-05-01 13:12 | 35.52085 | 104.35744 | 35184 ft | 422 kts | 186° |
| 2026-05-01 13:12 | 35.46256 | 104.35834 | 35184 ft | 421 kts | 186° |
| 2026-05-01 13:13 | 35.40355 | 104.35927 | 35183 ft | 421 kts | 186° |
| 2026-05-01 13:13 | 35.34521 | 104.36019 | 35166 ft | 423 kts | 186° |
| 2026-05-01 13:14 | 35.28625 | 104.36112 | 35160 ft | 423 kts | 186° |
| 2026-05-01 13:14 | 35.22730 | 104.36209 | 35160 ft | 423 kts | 186° |
| 2026-05-01 13:15 | 35.16836 | 104.36306 | 35156 ft | 423 kts | 186° |
| 2026-05-01 13:15 | 35.10946 | 104.36402 | 35157 ft | 424 kts | 186° |
| 2026-05-01 13:16 | 35.06043 | 104.36480 | 35153 ft | 424 kts | 186° |
| 2026-05-01 13:16 | 34.99194 | 104.36588 | 35149 ft | 424 kts | 186° |
| 2026-05-01 13:17 | 34.88364 | 104.36761 | 35131 ft | 423 kts | 186° |
| 2026-05-01 13:18 | 34.79535 | 104.36901 | 35141 ft | 423 kts | 186° |
| 2026-05-01 13:18 | 34.73690 | 104.36994 | 35140 ft | 423 kts | 186° |
| 2026-05-01 13:19 | 34.67805 | 104.37086 | 35131 ft | 422 kts | 186° |
| 2026-05-01 13:20 | 34.58990 | 104.37229 | 35136 ft | 422 kts | 186° |
| 2026-05-01 13:20 | 34.53122 | 104.37316 | 35132 ft | 422 kts | 186° |
| 2026-05-01 13:21 | 34.44318 | 104.37453 | 35132 ft | 422 kts | 186° |
| 2026-05-01 13:21 | 34.38452 | 104.37542 | 35109 ft | 422 kts | 186° |
| 2026-05-01 13:22 | 34.32587 | 104.37633 | 35124 ft | 421 kts | 186° |
| 2026-05-01 13:22 | 34.26728 | 104.37726 | 35111 ft | 421 kts | 186° |
| 2026-05-01 13:23 | 34.20869 | 104.37818 | 35108 ft | 421 kts | 186° |
| 2026-05-01 13:23 | 34.15012 | 104.37908 | 35101 ft | 421 kts | 186° |
| 2026-05-01 13:24 | 34.09155 | 104.38000 | 35097 ft | 420 kts | 186° |
| 2026-05-01 13:25 | 34.00381 | 104.38134 | 35088 ft | 420 kts | 186° |
| 2026-05-01 13:25 | 33.94538 | 104.38224 | 35074 ft | 420 kts | 186° |
| 2026-05-01 13:26 | 33.88692 | 104.38314 | 35074 ft | 420 kts | 186° |
| 2026-05-01 13:26 | 33.82884 | 104.38403 | 35074 ft | 421 kts | 186° |
| 2026-05-01 13:27 | 33.77021 | 104.38493 | 35064 ft | 421 kts | 186° |
| 2026-05-01 13:27 | 33.68222 | 104.38646 | 35068 ft | 421 kts | 186° |
| 2026-05-01 13:28 | 33.59427 | 104.39953 | 35059 ft | 439 kts | 167° |
| 2026-05-01 13:29 | 33.53850 | 104.43250 | 35060 ft | 451 kts | 158° |
| 2026-05-01 13:29 | 33.48444 | 104.47136 | 35047 ft | 454 kts | 156° |
| 2026-05-01 13:30 | 33.37506 | 104.54248 | 35050 ft | 436 kts | 172° |
| 2026-05-01 13:31 | 33.31631 | 104.55354 | 35044 ft | 425 kts | 182° |
| 2026-05-01 13:32 | 33.16812 | 104.56259 | 35031 ft | 427 kts | 184° |
| 2026-05-01 13:33 | 33.01976 | 104.57173 | 35047 ft | 427 kts | 184° |
| 2026-05-01 13:34 | 32.90108 | 104.57927 | 35040 ft | 427 kts | 184° |
| 2026-05-01 13:35 | 32.81206 | 104.58492 | 35036 ft | 427 kts | 183° |
| 2026-05-01 13:36 | 32.72305 | 104.59004 | 35044 ft | 427 kts | 184° |
| 2026-05-01 13:36 | 32.63454 | 104.59388 | 35040 ft | 426 kts | 184° |
| 2026-05-01 13:37 | 32.57529 | 104.59645 | 35035 ft | 426 kts | 184° |
| 2026-05-01 13:37 | 32.51582 | 104.59909 | 35037 ft | 430 kts | 183° |
| 2026-05-01 13:38 | 32.42571 | 104.60318 | 35028 ft | 431 kts | 183° |
| 2026-05-01 13:39 | 32.36568 | 104.60615 | 35016 ft | 432 kts | 182° |
| 2026-05-01 13:39 | 32.30563 | 104.60947 | 35020 ft | 432 kts | 182° |
| 2026-05-01 13:40 | 32.24541 | 104.61284 | 35019 ft | 435 kts | 182° |
| 2026-05-01 13:40 | 32.18455 | 104.61625 | 35004 ft | 438 kts | 182° |
| 2026-05-01 13:41 | 32.12419 | 104.61956 | 35006 ft | 437 kts | 182° |
| 2026-05-01 13:41 | 32.06337 | 104.62287 | 34998 ft | 437 kts | 182° |
| 2026-05-01 13:42 | 32.00253 | 104.62616 | 34997 ft | 439 kts | 182° |
| 2026-05-01 13:42 | 31.94128 | 104.62950 | 34989 ft | 441 kts | 182° |
| 2026-05-01 13:43 | 31.87982 | 104.63285 | 34988 ft | 441 kts | 182° |
| 2026-05-01 13:43 | 31.81850 | 104.63620 | 34986 ft | 441 kts | 182° |
| 2026-05-01 13:44 | 31.75716 | 104.63935 | 34961 ft | 441 kts | 184° |
| 2026-05-01 13:44 | 31.69579 | 104.64182 | 34976 ft | 441 kts | 184° |
| 2026-05-01 13:45 | 31.63444 | 104.64413 | 34963 ft | 441 kts | 184° |
| 2026-05-01 13:45 | 31.57306 | 104.64649 | 34959 ft | 441 kts | 184° |
| 2026-05-01 13:46 | 31.51169 | 104.64891 | 34956 ft | 441 kts | 184° |
| 2026-05-01 13:46 | 31.45078 | 104.65132 | 34955 ft | 440 kts | 185° |
| 2026-05-01 13:47 | 31.38959 | 104.65375 | 34950 ft | 440 kts | 185° |
| 2026-05-01 13:47 | 31.32842 | 104.65615 | 34951 ft | 440 kts | 185° |
| 2026-05-01 13:48 | 31.26725 | 104.65856 | 34953 ft | 440 kts | 185° |
| 2026-05-01 13:48 | 31.20607 | 104.66094 | 34948 ft | 440 kts | 185° |
| 2026-05-01 13:49 | 31.14489 | 104.66333 | 34947 ft | 440 kts | 185° |
| 2026-05-01 13:49 | 31.08523 | 104.65587 | 34943 ft | 425 kts | 202° |
| 2026-05-01 13:50 | 31.03285 | 104.62751 | 34951 ft | 411 kts | 220° |
| 2026-05-01 13:50 | 30.99275 | 104.58135 | 34950 ft | 404 kts | 234° |
| 2026-05-01 13:51 | 30.95893 | 104.52907 | 35107 ft | 403 kts | 236° |
| 2026-05-01 13:51 | 30.94257 | 104.50273 | 35350 ft | 400 kts | 237° |
| 2026-05-01 13:51 | 30.92627 | 104.47648 | 35496 ft | 400 kts | 236° |
| 2026-05-01 13:51 | 30.90991 | 104.45033 | 35614 ft | 400 kts | 236° |
| 2026-05-01 13:52 | 30.89299 | 104.42461 | 35715 ft | 401 kts | 232° |
| 2026-05-01 13:52 | 30.85107 | 104.38175 | 35864 ft | 410 kts | 216° |
| 2026-05-01 13:53 | 30.79988 | 104.35108 | 35955 ft | 417 kts | 210° |
| 2026-05-01 13:53 | 30.72018 | 104.31010 | 35930 ft | 417 kts | 209° |
| 2026-05-01 13:54 | 30.66703 | 104.28291 | 35953 ft | 418 kts | 209° |
| 2026-05-01 13:54 | 30.61384 | 104.25534 | 35946 ft | 418 kts | 210° |
| 2026-05-01 13:55 | 30.56094 | 104.22728 | 35951 ft | 417 kts | 210° |
| 2026-05-01 13:55 | 30.50678 | 104.20225 | 35955 ft | 424 kts | 200° |
| 2026-05-01 13:56 | 30.44859 | 104.18986 | 35955 ft | 430 kts | 194° |
| 2026-05-01 13:56 | 30.38899 | 104.18077 | 35955 ft | 432 kts | 193° |
| 2026-05-01 13:57 | 30.33900 | 104.17373 | 35951 ft | 432 kts | 193° |
| 2026-05-01 13:57 | 30.26969 | 104.16373 | 35952 ft | 432 kts | 193° |
| 2026-05-01 13:58 | 30.21013 | 104.15485 | 35950 ft | 431 kts | 193° |
| 2026-05-01 13:58 | 30.15060 | 104.14594 | 35950 ft | 431 kts | 193° |
| 2026-05-01 13:59 | 30.09120 | 104.13707 | 35950 ft | 430 kts | 193° |
| 2026-05-01 13:59 | 30.03180 | 104.12822 | 35948 ft | 430 kts | 193° |
| 2026-05-01 14:00 | 29.97243 | 104.11938 | 35950 ft | 430 kts | 193° |
| 2026-05-01 14:00 | 29.91308 | 104.11056 | 35929 ft | 430 kts | 193° |
| 2026-05-01 14:01 | 29.85400 | 104.10183 | 35950 ft | 426 kts | 193° |
| 2026-05-01 14:01 | 29.79522 | 104.09313 | 35951 ft | 425 kts | 193° |
| 2026-05-01 14:02 | 29.73649 | 104.08442 | 35952 ft | 425 kts | 193° |
| 2026-05-01 14:02 | 29.67778 | 104.07574 | 35950 ft | 425 kts | 193° |
| 2026-05-01 14:03 | 29.61951 | 104.06713 | 35949 ft | 424 kts | 193° |
| 2026-05-01 14:03 | 29.56102 | 104.05852 | 35954 ft | 422 kts | 193° |
| 2026-05-01 14:04 | 29.50268 | 104.04992 | 35952 ft | 422 kts | 193° |
| 2026-05-01 14:04 | 29.45429 | 104.04280 | 35954 ft | 422 kts | 193° |
| 2026-05-01 14:05 | 29.38587 | 104.03437 | 35953 ft | 427 kts | 188° |
| 2026-05-01 14:05 | 29.32642 | 104.03383 | 35952 ft | 428 kts | 186° |
| 2026-05-01 14:06 | 29.27696 | 104.03450 | 35961 ft | 428 kts | 186° |
| 2026-05-01 14:06 | 29.21740 | 104.03556 | 35958 ft | 428 kts | 186° |
| 2026-05-01 14:07 | 29.15783 | 104.03653 | 35959 ft | 428 kts | 186° |
| 2026-05-01 14:08 | 29.06860 | 104.03782 | 35952 ft | 428 kts | 186° |
| 2026-05-01 14:08 | 29.00899 | 104.03864 | 35962 ft | 429 kts | 186° |
| 2026-05-01 14:09 | 28.94929 | 104.03947 | 35961 ft | 429 kts | 186° |
| 2026-05-01 14:09 | 28.88966 | 104.04029 | 35963 ft | 428 kts | 186° |
| 2026-05-01 14:10 | 28.83010 | 104.04114 | 35969 ft | 428 kts | 186° |
| 2026-05-01 14:10 | 28.77044 | 104.04197 | 35968 ft | 429 kts | 186° |
| 2026-05-01 14:11 | 28.71056 | 104.04278 | 35972 ft | 431 kts | 186° |
| 2026-05-01 14:11 | 28.62043 | 104.04357 | 35971 ft | 429 kts | 191° |
| 2026-05-01 14:12 | 28.56325 | 104.03069 | 35962 ft | 412 kts | 207° |
| 2026-05-01 14:12 | 28.51295 | 104.00105 | 35942 ft | 407 kts | 215° |
| 2026-05-01 14:13 | 28.46485 | 103.96738 | 35987 ft | 404 kts | 216° |
| 2026-05-01 14:13 | 28.41716 | 103.93335 | 35969 ft | 405 kts | 217° |
| 2026-05-01 14:14 | 28.36989 | 103.89925 | 35986 ft | 405 kts | 217° |
| 2026-05-01 14:14 | 28.32204 | 103.86543 | 35972 ft | 404 kts | 216° |
| 2026-05-01 14:15 | 28.27420 | 103.83182 | 35955 ft | 405 kts | 215° |
| 2026-05-01 14:15 | 28.22599 | 103.79823 | 35970 ft | 410 kts | 216° |
| 2026-05-01 14:16 | 28.17737 | 103.76402 | 35972 ft | 412 kts | 216° |
| 2026-05-01 14:16 | 28.12864 | 103.72976 | 35971 ft | 412 kts | 216° |
| 2026-05-01 14:17 | 28.07994 | 103.69557 | 35973 ft | 412 kts | 216° |
| 2026-05-01 14:17 | 28.03118 | 103.66147 | 35966 ft | 412 kts | 216° |
| 2026-05-01 14:18 | 27.98244 | 103.62749 | 35965 ft | 411 kts | 216° |
| 2026-05-01 14:18 | 27.94197 | 103.59927 | 35960 ft | 410 kts | 216° |
| 2026-05-01 14:19 | 27.88522 | 103.55972 | 35957 ft | 410 kts | 216° |
| 2026-05-01 14:19 | 27.83672 | 103.52593 | 35958 ft | 409 kts | 216° |
| 2026-05-01 14:20 | 27.76383 | 103.47526 | 35943 ft | 410 kts | 216° |
| 2026-05-01 14:21 | 27.71513 | 103.44139 | 35936 ft | 411 kts | 216° |
| 2026-05-01 14:21 | 27.66670 | 103.40785 | 35938 ft | 411 kts | 216° |
| 2026-05-01 14:22 | 27.59339 | 103.35706 | 35915 ft | 411 kts | 216° |
| 2026-05-01 14:22 | 27.54474 | 103.32327 | 35916 ft | 411 kts | 216° |
| 2026-05-01 14:23 | 27.49610 | 103.28953 | 35922 ft | 411 kts | 216° |
| 2026-05-01 14:23 | 27.44650 | 103.25738 | 35914 ft | 414 kts | 208° |
| 2026-05-01 14:24 | 27.39320 | 103.23197 | 35909 ft | 417 kts | 207° |
| 2026-05-01 14:24 | 27.33919 | 103.20799 | 35900 ft | 416 kts | 207° |
| 2026-05-01 14:25 | 27.28528 | 103.18448 | 35905 ft | 415 kts | 206° |
| 2026-05-01 14:25 | 27.23135 | 103.16076 | 35924 ft | 417 kts | 207° |
| 2026-05-01 14:26 | 27.15037 | 103.12496 | 35905 ft | 417 kts | 207° |
| 2026-05-01 14:27 | 27.09647 | 103.10122 | 35939 ft | 421 kts | 207° |
| 2026-05-01 14:27 | 27.04171 | 103.07706 | 35939 ft | 423 kts | 207° |
| 2026-05-01 14:28 | 26.95958 | 103.04085 | 35950 ft | 422 kts | 207° |
| 2026-05-01 14:28 | 26.90497 | 103.01686 | 35954 ft | 421 kts | 207° |
| 2026-05-01 14:29 | 26.85033 | 102.99286 | 35966 ft | 422 kts | 207° |
| 2026-05-01 14:30 | 26.74088 | 102.94467 | 35975 ft | 422 kts | 207° |
| 2026-05-01 14:31 | 26.65845 | 102.90866 | 35991 ft | 425 kts | 207° |
| 2026-05-01 14:31 | 26.60378 | 102.88482 | 35991 ft | 424 kts | 207° |
| 2026-05-01 14:32 | 26.54880 | 102.86070 | 36010 ft | 426 kts | 208° |
| 2026-05-01 14:32 | 26.49346 | 102.83643 | 36021 ft | 427 kts | 208° |
| 2026-05-01 14:33 | 26.43799 | 102.81245 | 36025 ft | 428 kts | 207° |
| 2026-05-01 14:33 | 26.38236 | 102.78895 | 36046 ft | 426 kts | 207° |
| 2026-05-01 14:34 | 26.32713 | 102.76513 | 35942 ft | 425 kts | 208° |
| 2026-05-01 14:34 | 26.29975 | 102.75294 | 36073 ft | 423 kts | 208° |
| 2026-05-01 14:34 | 26.27240 | 102.74070 | 36074 ft | 424 kts | 208° |
| 2026-05-01 14:35 | 26.21748 | 102.71648 | 36075 ft | 425 kts | 207° |
| 2026-05-01 14:35 | 26.16186 | 102.69377 | 36107 ft | 429 kts | 201° |
| 2026-05-01 14:36 | 26.10265 | 102.68107 | 36096 ft | 436 kts | 195° |
| 2026-05-01 14:36 | 26.04237 | 102.67128 | 36132 ft | 439 kts | 194° |
| 2026-05-01 14:37 | 25.98183 | 102.66202 | 36122 ft | 439 kts | 194° |
| 2026-05-01 14:37 | 25.92137 | 102.65261 | 36153 ft | 439 kts | 194° |
| 2026-05-01 14:38 | 25.86095 | 102.64306 | 36156 ft | 439 kts | 194° |
| 2026-05-01 14:38 | 25.80047 | 102.63334 | 36157 ft | 439 kts | 194° |
| 2026-05-01 14:39 | 25.74007 | 102.62382 | 36136 ft | 438 kts | 194° |
| 2026-05-01 14:39 | 25.67983 | 102.61442 | 36138 ft | 436 kts | 194° |
| 2026-05-01 14:40 | 25.61957 | 102.60503 | 36149 ft | 439 kts | 194° |
| 2026-05-01 14:40 | 25.55906 | 102.59526 | 36161 ft | 439 kts | 194° |
| 2026-05-01 14:41 | 25.49861 | 102.58573 | 36166 ft | 439 kts | 194° |
| 2026-05-01 14:41 | 25.43818 | 102.57615 | 36172 ft | 439 kts | 194° |
| 2026-05-01 14:42 | 25.37811 | 102.56662 | 36164 ft | 439 kts | 194° |
| 2026-05-01 14:42 | 25.31772 | 102.55708 | 36184 ft | 438 kts | 194° |
| 2026-05-01 14:43 | 25.25732 | 102.54758 | 36172 ft | 438 kts | 195° |
| 2026-05-01 14:43 | 25.19694 | 102.53805 | 36184 ft | 438 kts | 194° |
| 2026-05-01 14:44 | 25.13662 | 102.52859 | 36183 ft | 438 kts | 194° |
| 2026-05-01 14:44 | 25.07817 | 102.51321 | 36195 ft | 426 kts | 208° |
| 2026-05-01 14:44 | 25.05171 | 102.49914 | 36192 ft | 420 kts | 214° |
| 2026-05-01 14:45 | 24.97641 | 102.45006 | 36165 ft | 419 kts | 217° |
| 2026-05-01 14:46 | 24.92676 | 102.41617 | 36164 ft | 420 kts | 217° |
| 2026-05-01 14:46 | 24.85236 | 102.36567 | 36181 ft | 418 kts | 217° |
| 2026-05-01 14:47 | 24.80279 | 102.33235 | 36163 ft | 417 kts | 217° |
| 2026-05-01 14:48 | 24.72845 | 102.28245 | 36170 ft | 417 kts | 217° |
| 2026-05-01 14:48 | 24.65400 | 102.23283 | 36153 ft | 417 kts | 217° |
| 2026-05-01 14:49 | 24.55524 | 102.16691 | 36153 ft | 417 kts | 217° |
| 2026-05-01 14:50 | 24.45599 | 102.10056 | 36134 ft | 419 kts | 216° |
| 2026-05-01 14:51 | 24.38133 | 102.05088 | 36137 ft | 418 kts | 216° |
| 2026-05-01 14:52 | 24.31517 | 102.00688 | 36119 ft | 418 kts | 216° |
| 2026-05-01 14:53 | 24.24085 | 101.95723 | 36125 ft | 418 kts | 216° |
| 2026-05-01 14:53 | 24.19104 | 101.92421 | 36111 ft | 419 kts | 216° |
| 2026-05-01 14:54 | 24.14098 | 101.89122 | 36088 ft | 420 kts | 216° |
| 2026-05-01 14:54 | 24.09101 | 101.85823 | 36079 ft | 419 kts | 216° |
| 2026-05-01 14:55 | 24.04103 | 101.82521 | 36099 ft | 420 kts | 216° |
| 2026-05-01 14:55 | 23.99108 | 101.79190 | 36099 ft | 420 kts | 216° |
| 2026-05-01 14:56 | 23.94107 | 101.75888 | 36089 ft | 420 kts | 216° |
| 2026-05-01 14:56 | 23.89085 | 101.72620 | 36089 ft | 421 kts | 215° |
| 2026-05-01 14:57 | 23.84046 | 101.69336 | 36082 ft | 422 kts | 215° |
| 2026-05-01 14:57 | 23.76530 | 101.64404 | 36092 ft | 420 kts | 216° |
| 2026-05-01 14:58 | 23.71489 | 101.61101 | 36091 ft | 419 kts | 215° |
| 2026-05-01 14:58 | 23.66513 | 101.57852 | 36090 ft | 420 kts | 215° |
| 2026-05-01 14:59 | 23.61503 | 101.54581 | 36082 ft | 420 kts | 215° |
| 2026-05-01 14:59 | 23.56489 | 101.51311 | 36083 ft | 420 kts | 215° |
| 2026-05-01 15:00 | 23.48977 | 101.46414 | 36088 ft | 419 kts | 215° |
| 2026-05-01 15:01 | 23.43970 | 101.43150 | 36072 ft | 419 kts | 215° |
| 2026-05-01 15:01 | 23.38963 | 101.39896 | 36069 ft | 419 kts | 215° |
| 2026-05-01 15:02 | 23.33956 | 101.36642 | 36071 ft | 419 kts | 215° |
| 2026-05-01 15:02 | 23.28943 | 101.33385 | 36060 ft | 420 kts | 215° |
| 2026-05-01 15:03 | 23.23915 | 101.30113 | 36061 ft | 421 kts | 215° |
| 2026-05-01 15:03 | 23.18905 | 101.26827 | 36055 ft | 421 kts | 215° |
| 2026-05-01 15:04 | 23.13862 | 101.23589 | 36051 ft | 421 kts | 215° |
| 2026-05-01 15:04 | 23.08827 | 101.20349 | 36051 ft | 421 kts | 215° |
| 2026-05-01 15:05 | 23.03818 | 101.17112 | 36051 ft | 422 kts | 215° |
| 2026-05-01 15:05 | 22.98777 | 101.13856 | 36053 ft | 422 kts | 215° |
| 2026-05-01 15:06 | 22.93737 | 101.10603 | 36045 ft | 422 kts | 215° |
| 2026-05-01 15:06 | 22.88697 | 101.07349 | 36057 ft | 422 kts | 215° |
| 2026-05-01 15:07 | 22.83652 | 101.04101 | 36049 ft | 422 kts | 215° |
| 2026-05-01 15:07 | 22.78581 | 101.00884 | 36048 ft | 423 kts | 211° |
| 2026-05-01 15:08 | 22.72971 | 100.98789 | 36041 ft | 434 kts | 194° |
| 2026-05-01 15:08 | 22.66855 | 100.98913 | 36047 ft | 451 kts | 173° |
| 2026-05-01 15:09 | 22.60834 | 101.01088 | 36049 ft | 460 kts | 164° |
| 2026-05-01 15:09 | 22.54892 | 101.03728 | 36049 ft | 462 kts | 163° |
| 2026-05-01 15:10 | 22.48959 | 101.06398 | 36048 ft | 462 kts | 163° |
| 2026-05-01 15:10 | 22.40037 | 101.10311 | 36039 ft | 461 kts | 164° |
| 2026-05-01 15:11 | 22.31110 | 101.14172 | 36027 ft | 460 kts | 164° |
| 2026-05-01 15:12 | 22.25157 | 101.16739 | 36028 ft | 460 kts | 164° |
| 2026-05-01 15:12 | 22.16237 | 101.20592 | 36014 ft | 460 kts | 164° |
| 2026-05-01 15:14 | 22.01409 | 101.26991 | 36013 ft | 461 kts | 163° |
| 2026-05-01 15:14 | 21.92491 | 101.30830 | 36007 ft | 460 kts | 163° |
| 2026-05-01 15:15 | 21.80554 | 101.35977 | 36018 ft | 463 kts | 163° |
| 2026-05-01 15:16 | 21.68610 | 101.41123 | 36008 ft | 462 kts | 163° |
| 2026-05-01 15:18 | 21.53692 | 101.47542 | 36017 ft | 461 kts | 163° |
| 2026-05-01 15:19 | 21.41762 | 101.52655 | 36030 ft | 461 kts | 163° |
| 2026-05-01 15:19 | 21.32821 | 101.56483 | 36023 ft | 461 kts | 163° |
| 2026-05-01 15:20 | 21.23887 | 101.60306 | 36022 ft | 461 kts | 163° |
| 2026-05-01 15:21 | 21.17936 | 101.62852 | 36023 ft | 461 kts | 162° |
| 2026-05-01 15:21 | 21.11984 | 101.65417 | 36027 ft | 461 kts | 162° |
| 2026-05-01 15:22 | 21.03071 | 101.69270 | 36026 ft | 461 kts | 162° |
| 2026-05-01 15:22 | 20.97163 | 101.71819 | 36033 ft | 461 kts | 162° |
| 2026-05-01 15:23 | 20.91212 | 101.74383 | 36030 ft | 461 kts | 162° |
| 2026-05-01 15:23 | 20.85263 | 101.76943 | 36031 ft | 461 kts | 162° |
| 2026-05-01 15:24 | 20.79311 | 101.79503 | 36031 ft | 461 kts | 162° |
| 2026-05-01 15:24 | 20.73360 | 101.82059 | 36032 ft | 461 kts | 162° |
| 2026-05-01 15:25 | 20.67416 | 101.84611 | 36029 ft | 460 kts | 162° |
| 2026-05-01 15:25 | 20.61478 | 101.87158 | 36029 ft | 460 kts | 162° |
| 2026-05-01 15:26 | 20.55547 | 101.89700 | 35933 ft | 459 kts | 162° |
| 2026-05-01 15:26 | 20.49611 | 101.92240 | 35933 ft | 459 kts | 162° |
| 2026-05-01 15:27 | 20.43682 | 101.94776 | 35936 ft | 459 kts | 162° |
| 2026-05-01 15:28 | 20.34783 | 101.98581 | 35931 ft | 459 kts | 162° |
| 2026-05-01 15:28 | 20.28858 | 102.01113 | 35928 ft | 458 kts | 162° |
| 2026-05-01 15:29 | 20.19973 | 102.04898 | 35923 ft | 459 kts | 162° |
| 2026-05-01 15:30 | 20.09099 | 102.09529 | 35918 ft | 460 kts | 162° |
| 2026-05-01 15:31 | 19.90060 | 102.16102 | 35914 ft | 445 kts | 185° |
| 2026-05-01 15:32 | 19.84031 | 102.15096 | 35917 ft | 437 kts | 198° |
| 2026-05-01 15:32 | 19.78178 | 102.13355 | 35920 ft | 437 kts | 200° |
| 2026-05-01 15:34 | 19.60700 | 102.07881 | 35926 ft | 436 kts | 200° |